Time;durP1;ratioP1;P1;durP2;ratioP2;P2;SDS_P1;SDS_P2;PMS_P1;PMS_P2;Temp;Humidity;BMP_temperature;BMP_pressure;BME280_temperature;BME280_humidity;BME280_pressure;Samples;Min_cycle;Max_cycle;Signal;HPM_P1;HPM_P2
2021/12/06 00:01:29;;;;;;;9.33;7.50;;;3.40;99.90;;;;;;5057863;28;20516;-65
2021/12/06 00:04:07;;;;;;;9.43;7.17;;;3.40;99.90;;;;;;5058669;28;20527;-65
2021/12/06 00:06:38;;;;;;;9.27;6.50;;;3.40;99.90;;;;;;5058642;28;20470;-65
2021/12/06 00:09:07;;;;;;;9.50;7.10;;;3.40;99.90;;;;;;5058196;28;20450;-65
2021/12/06 00:11:34;;;;;;;7.87;6.73;;;3.40;99.90;;;;;;5058452;28;20828;-65
2021/12/06 00:14:03;;;;;;;9.00;7.17;;;3.40;99.90;;;;;;5058857;28;20502;-65
2021/12/06 00:16:31;;;;;;;8.07;7.27;;;3.40;99.90;;;;;;5058765;28;20519;-65
2021/12/06 00:18:59;;;;;;;9.90;7.67;;;3.40;99.90;;;;;;5058005;28;20428;-65
2021/12/06 00:21:28;;;;;;;9.67;7.83;;;3.30;99.90;;;;;;5058007;28;20458;-66
2021/12/06 00:23:56;;;;;;;8.73;7.27;;;3.30;99.90;;;;;;5058601;28;20809;-65
2021/12/06 00:26:23;;;;;;;9.73;6.50;;;3.30;99.90;;;;;;5058409;28;20768;-65
2021/12/06 00:28:57;;;;;;;8.57;7.60;;;3.30;99.90;;;;;;5057816;28;20587;-65
2021/12/06 00:31:27;;;;;;;8.20;6.93;;;3.30;99.90;;;;;;5057983;28;20470;-65
2021/12/06 00:33:59;;;;;;;8.13;7.33;;;3.30;99.90;;;;;;5058044;28;20520;-66
2021/12/06 00:36:29;;;;;;;7.43;6.70;;;3.30;99.90;;;;;;5058127;28;20505;-65
2021/12/06 00:38:57;;;;;;;8.43;7.63;;;3.20;99.90;;;;;;5041345;28;20463;-65
2021/12/06 00:41:24;;;;;;;9.20;8.23;;;3.20;99.90;;;;;;5037716;28;20487;-65
2021/12/06 00:43:52;;;;;;;7.63;6.90;;;3.10;99.90;;;;;;5076998;28;20958;-65
2021/12/06 00:46:19;;;;;;;8.20;7.40;;;3.10;99.90;;;;;;5078259;28;20472;-65
2021/12/06 00:48:49;;;;;;;10.00;8.40;;;3.00;99.90;;;;;;5088161;28;20538;-65
2021/12/06 00:51:16;;;;;;;8.37;7.50;;;2.90;99.90;;;;;;5097774;28;20500;-65
2021/12/06 00:53:45;;;;;;;8.70;7.80;;;2.80;99.90;;;;;;5098159;28;20431;-65
2021/12/06 00:56:14;;;;;;;11.10;9.53;;;2.70;99.90;;;;;;5098209;28;20460;-65
2021/12/06 00:58:42;;;;;;;8.90;7.70;;;2.70;99.90;;;;;;5098134;28;20899;-65
2021/12/06 01:01:09;;;;;;;10.10;8.17;;;2.60;99.90;;;;;;5097761;28;20464;-65
2021/12/06 01:03:39;;;;;;;9.70;7.87;;;2.70;99.90;;;;;;5097822;28;20459;-65
2021/12/06 01:06:08;;;;;;;11.63;9.40;;;2.60;99.90;;;;;;5098017;28;20460;-65
2021/12/06 01:08:39;;;;;;;11.43;9.37;;;2.60;99.90;;;;;;5097993;28;20813;-65
2021/12/06 01:11:10;;;;;;;8.97;8.10;;;2.50;99.90;;;;;;5097977;28;20573;-65
2021/12/06 01:13:38;;;;;;;8.87;7.20;;;2.50;99.90;;;;;;5097773;28;20525;-66
2021/12/06 01:16:07;;;;;;;8.90;8.00;;;2.40;99.90;;;;;;5097682;28;20435;-65
2021/12/06 01:18:41;;;;;;;9.60;8.70;;;2.30;99.90;;;;;;5097895;28;20460;-65
2021/12/06 01:21:16;;;;;;;9.57;8.60;;;2.40;99.90;;;;;;5097465;28;20513;-65
2021/12/06 01:23:53;;;;;;;10.93;8.70;;;2.30;99.90;;;;;;5081633;28;20465;-65
2021/12/06 01:29:25;;;;;;;9.83;8.87;;;2.20;99.90;;;;;;5075298;28;20760;-65
2021/12/06 01:31:59;;;;;;;10.13;9.00;;;2.20;99.90;;;;;;5076432;28;20767;-64
2021/12/06 01:39:58;;;;;;;10.30;8.87;;;2.00;99.90;;;;;;5076838;28;20437;-63
2021/12/06 01:42:27;;;;;;;9.83;8.53;;;1.80;99.90;;;;;;5076754;28;20489;-63
2021/12/06 01:44:58;;;;;;;10.20;8.80;;;1.70;99.90;;;;;;5076763;28;20461;-63
2021/12/06 01:47:29;;;;;;;10.27;8.10;;;1.60;99.90;;;;;;5076834;28;20436;-63
2021/12/06 01:49:58;;;;;;;12.43;11.17;;;1.50;99.90;;;;;;5097225;28;20469;-63
2021/12/06 01:52:28;;;;;;;10.37;9.20;;;1.50;99.90;;;;;;5097168;28;20533;-63
2021/12/06 01:54:56;;;;;;;8.97;8.00;;;1.50;99.90;;;;;;5097109;28;20517;-62
2021/12/06 01:57:24;;;;;;;8.43;7.50;;;1.40;99.90;;;;;;5096919;28;20782;-62
2021/12/06 01:59:54;;;;;;;7.80;6.60;;;1.50;99.90;;;;;;5099706;28;20460;-61
2021/12/06 02:02:22;;;;;;;12.50;8.63;;;1.50;99.90;;;;;;5101450;28;20948;-62
2021/12/06 02:04:50;;;;;;;11.70;8.27;;;1.30;99.90;;;;;;5101316;28;20518;-62
2021/12/06 02:07:19;;;;;;;12.60;9.43;;;1.20;99.90;;;;;;5101139;28;20504;-61
2021/12/06 02:09:48;;;;;;;12.37;9.17;;;1.20;99.90;;;;;;5101176;28;20521;-62
2021/12/06 02:12:15;;;;;;;9.43;8.53;;;1.30;99.90;;;;;;5101222;28;20461;-61
2021/12/06 02:14:52;;;;;;;11.40;9.10;;;1.20;99.90;;;;;;5101542;28;20460;-60
2021/12/06 02:17:24;;;;;;;8.50;7.60;;;1.20;99.90;;;;;;5100710;28;20521;-61
2021/12/06 02:19:57;;;;;;;10.70;8.50;;;1.00;99.90;;;;;;5101131;28;20513;-61
2021/12/06 02:22:28;;;;;;;9.80;8.63;;;0.90;99.90;;;;;;5101193;28;20742;-61
2021/12/06 02:24:57;;;;;;;8.73;7.73;;;0.90;99.90;;;;;;5100664;28;20496;-61
2021/12/06 02:27:27;;;;;;;16.13;8.30;;;0.80;99.90;;;;;;5100809;28;20552;-61
2021/12/06 02:29:56;;;;;;;9.23;7.77;;;0.90;99.90;;;;;;5100928;28;20496;-61
2021/12/06 02:32:25;;;;;;;9.27;8.27;;;0.90;99.90;;;;;;5100859;28;20933;-61
2021/12/06 02:34:55;;;;;;;9.77;8.77;;;0.90;99.90;;;;;;5100431;28;20460;-62
2021/12/06 02:37:29;;;;;;;10.13;8.20;;;0.90;99.90;;;;;;5100484;28;20509;-62
2021/12/06 02:39:57;;;;;;;8.50;7.70;;;0.80;99.90;;;;;;5100973;28;20800;-61
2021/12/06 02:46:06;;;;;;;11.27;8.37;;;0.60;99.90;;;;;;5097142;28;20550;-61
2021/12/06 02:48:34;;;;;;;10.90;8.13;;;0.60;99.90;;;;;;5091374;28;20534;-61
2021/12/06 02:51:04;;;;;;;8.80;7.60;;;0.70;99.90;;;;;;5080293;28;20436;-61
2021/12/06 02:53:35;;;;;;;9.30;7.40;;;0.60;99.90;;;;;;5080148;28;20817;-60
2021/12/06 02:56:06;;;;;;;12.97;8.60;;;0.60;99.90;;;;;;5080377;28;20465;-61
2021/12/06 02:58:55;;;;;;;10.10;7.63;;;0.60;99.90;;;;;;5080378;28;20460;-61
2021/12/06 03:01:27;;;;;;;20.47;9.03;;;0.50;99.90;;;;;;5080101;28;20564;-62
2021/12/06 03:03:54;;;;;;;25.23;10.00;;;0.50;99.90;;;;;;5079495;28;20522;-61
2021/12/06 03:06:22;;;;;;;45.20;10.77;;;0.50;99.90;;;;;;5080085;28;20465;-61
2021/12/06 03:08:58;;;;;;;13.80;8.63;;;0.50;99.90;;;;;;5079375;28;20492;-61
2021/12/06 03:11:29;;;;;;;13.37;9.20;;;0.50;99.90;;;;;;5078798;28;20465;-62
2021/12/06 03:13:57;;;;;;;46.23;9.30;;;0.50;99.90;;;;;;5079973;28;20542;-62
2021/12/06 03:16:25;;;;;;;36.73;9.57;;;0.50;99.90;;;;;;5080076;28;20491;-62
2021/12/06 03:18:54;;;;;;;37.47;9.33;;;0.30;99.90;;;;;;5079558;28;20525;-62
2021/12/06 03:21:22;;;;;;;11.47;8.63;;;0.20;99.90;;;;;;5079528;28;20465;-62
2021/12/06 03:23:51;;;;;;;12.43;7.70;;;0.10;99.90;;;;;;5079640;28;20515;-63
2021/12/06 03:26:18;;;;;;;10.30;7.30;;;0.10;99.90;;;;;;5079950;28;20473;-63
2021/12/06 03:28:46;;;;;;;8.80;7.43;;;0.10;99.90;;;;;;5079779;28;20491;-63
2021/12/06 03:31:18;;;;;;;7.57;6.77;;;0.10;99.90;;;;;;5079787;28;20518;-63
2021/12/06 03:33:47;;;;;;;11.27;7.90;;;0.10;99.90;;;;;;5079632;28;20496;-63
2021/12/06 03:36:16;;;;;;;19.47;9.77;;;0.10;99.90;;;;;;5079341;28;20545;-63
2021/12/06 03:38:44;;;;;;;22.73;9.60;;;0.10;99.90;;;;;;5079128;28;20510;-63
2021/12/06 03:41:14;;;;;;;84.40;13.40;;;0.20;99.90;;;;;;5079313;28;21024;-63
2021/12/06 03:43:42;;;;;;;146.53;14.30;;;0.20;99.90;;;;;;5078764;28;20518;-63
2021/12/06 03:46:10;;;;;;;35.93;10.60;;;0.20;99.90;;;;;;5079261;28;20554;-63
2021/12/06 03:48:40;;;;;;;10.80;8.10;;;0.10;99.90;;;;;;5089080;28;20681;-63
2021/12/06 03:51:08;;;;;;;29.63;9.70;;;0.10;99.90;;;;;;5099145;28;20464;-63
2021/12/06 03:53:35;;;;;;;27.40;9.30;;;0.00;99.90;;;;;;5099512;28;20497;-62
2021/12/06 03:56:03;;;;;;;52.63;9.90;;;0.00;99.90;;;;;;5099262;28;20466;-63
2021/12/06 03:58:33;;;;;;;60.00;11.03;;;0.00;99.90;;;;;;5099079;28;20520;-63
2021/12/06 04:01:02;;;;;;;31.87;8.73;;;0.00;99.90;;;;;;5099529;28;20520;-62
2021/12/06 04:03:30;;;;;;;19.47;8.13;;;-0.10;99.90;;;;;;5099003;28;20464;-63
2021/12/06 04:06:00;;;;;;;82.33;11.40;;;-0.10;99.90;;;;;;5099600;28;20550;-62
2021/12/06 04:08:27;;;;;;;39.13;9.43;;;-0.20;99.90;;;;;;5099247;28;20496;-63
2021/12/06 04:10:55;;;;;;;36.77;9.47;;;-0.30;99.90;;;;;;5098875;28;20529;-63
2021/12/06 04:13:25;;;;;;;21.63;7.77;;;-0.20;99.90;;;;;;5098851;28;20496;-63
2021/12/06 04:15:54;;;;;;;24.70;8.70;;;-0.30;99.90;;;;;;5099119;28;20472;-63
2021/12/06 04:18:21;;;;;;;23.87;8.27;;;-0.30;99.90;;;;;;5099113;28;20500;-63
2021/12/06 04:20:48;;;;;;;21.70;8.60;;;-0.30;99.90;;;;;;5099513;28;20459;-63
2021/12/06 04:23:16;;;;;;;23.73;8.20;;;-0.30;99.90;;;;;;5097385;28;20467;-62
2021/12/06 04:25:44;;;;;;;21.83;9.63;;;-0.30;99.90;;;;;;5098963;28;20501;-62
2021/12/06 04:28:14;;;;;;;47.83;15.63;;;-0.30;99.90;;;;;;5098729;28;20468;-62
2021/12/06 04:30:44;;;;;;;38.20;15.93;;;-0.30;99.90;;;;;;5098884;28;20467;-62
2021/12/06 04:33:13;;;;;;;22.40;10.30;;;-0.40;99.90;;;;;;5098440;28;20518;-62
2021/12/06 04:35:44;;;;;;;35.70;9.97;;;-0.40;99.90;;;;;;5098687;28;20521;-62
2021/12/06 04:38:11;;;;;;;135.73;15.80;;;-0.30;99.90;;;;;;5098573;28;20509;-62
2021/12/06 04:40:39;;;;;;;31.30;9.43;;;-0.40;99.90;;;;;;5098601;28;20821;-62
2021/12/06 04:43:07;;;;;;;60.93;10.37;;;-0.40;99.90;;;;;;5098189;28;20463;-62
2021/12/06 04:45:35;;;;;;;68.43;10.00;;;-0.50;99.90;;;;;;5098406;28;20586;-62
2021/12/06 04:48:02;;;;;;;27.87;9.30;;;-0.60;99.90;;;;;;5093705;28;20747;-62
2021/12/06 04:50:33;;;;;;;50.90;10.30;;;-0.70;99.90;;;;;;5078225;28;20440;-62
2021/12/06 04:53:04;;;;;;;9.63;6.73;;;-0.60;99.90;;;;;;5077687;28;20905;-62
2021/12/06 04:55:36;;;;;;;27.10;8.47;;;-0.70;99.90;;;;;;5078382;28;20468;-62
2021/12/06 04:58:04;;;;;;;26.77;8.60;;;-0.70;99.90;;;;;;5078230;28;20517;-62
2021/12/06 05:00:35;;;;;;;35.90;10.37;;;-0.70;99.90;;;;;;5078065;28;20931;-62
2021/12/06 05:03:04;;;;;;;17.67;8.50;;;-0.70;99.90;;;;;;5077593;28;21205;-62
2021/12/06 05:05:39;;;;;;;44.47;9.63;;;-0.80;99.90;;;;;;5077645;28;20511;-62
2021/12/06 05:08:10;;;;;;;17.03;8.60;;;-0.80;99.90;;;;;;5078404;28;20882;-62
2021/12/06 05:10:38;;;;;;;32.23;9.40;;;-0.90;99.90;;;;;;5077951;28;20464;-62
2021/12/06 05:13:05;;;;;;;42.37;9.43;;;-0.90;99.90;;;;;;5078015;28;20464;-61
2021/12/06 05:15:32;;;;;;;11.70;7.37;;;-0.90;99.90;;;;;;5078028;28;20955;-62
2021/12/06 05:17:59;;;;;;;16.30;9.90;;;-0.90;99.90;;;;;;5078171;28;20522;-62
2021/12/06 05:20:26;;;;;;;12.73;8.73;;;-0.90;99.90;;;;;;5078182;28;20470;-62
2021/12/06 05:22:55;;;;;;;40.17;11.57;;;-0.90;99.90;;;;;;5077586;28;20465;-62
2021/12/06 05:25:25;;;;;;;31.93;10.20;;;-1.00;99.90;;;;;;5077809;28;20472;-62
2021/12/06 05:27:58;;;;;;;32.23;10.77;;;-1.00;99.90;;;;;;5077936;28;20543;-62
2021/12/06 05:30:25;;;;;;;46.40;12.40;;;-1.00;99.90;;;;;;5078086;28;20781;-62
2021/12/06 05:32:54;;;;;;;22.87;11.20;;;-1.00;99.90;;;;;;5077504;28;20474;-62
2021/12/06 05:35:21;;;;;;;82.17;17.00;;;-1.00;99.90;;;;;;5077033;28;20571;-62
2021/12/06 05:37:51;;;;;;;25.50;11.10;;;-1.00;99.90;;;;;;5077616;28;20806;-62
2021/12/06 05:40:21;;;;;;;19.47;10.17;;;-0.90;99.90;;;;;;5077711;28;20471;-61
2021/12/06 05:42:48;;;;;;;25.97;10.53;;;-0.90;99.90;;;;;;5078201;28;20947;-62
2021/12/06 05:45:19;;;;;;;65.47;13.40;;;-0.80;99.90;;;;;;5077706;28;20484;-61
2021/12/06 05:47:47;;;;;;;18.40;10.63;;;-0.80;99.90;;;;;;5080212;28;20461;-62
2021/12/06 05:50:15;;;;;;;44.90;12.00;;;-0.80;99.90;;;;;;5097678;28;20561;-61
2021/12/06 05:52:43;;;;;;;18.73;10.10;;;-0.90;99.90;;;;;;5097792;28;20470;-62
2021/12/06 05:55:12;;;;;;;16.37;10.43;;;-0.90;99.90;;;;;;5097555;28;20522;-62
2021/12/06 05:57:42;;;;;;;11.10;9.90;;;-1.00;99.90;;;;;;5086737;28;21019;-61
2021/12/06 06:00:12;;;;;;;12.87;9.70;;;-1.00;99.90;;;;;;5077652;28;20935;-62
2021/12/06 06:02:39;;;;;;;12.50;9.83;;;-1.00;99.90;;;;;;5077817;28;20473;-62
2021/12/06 06:05:11;;;;;;;12.10;8.77;;;-0.90;99.90;;;;;;5076954;28;20894;-62
2021/12/06 06:07:42;;;;;;;10.47;8.53;;;-0.90;99.90;;;;;;5077903;28;20487;-62
2021/12/06 06:10:12;;;;;;;18.87;10.07;;;-0.80;99.90;;;;;;5077971;28;20947;-62
2021/12/06 06:12:40;;;;;;;14.50;10.20;;;-0.70;99.90;;;;;;5077777;28;20465;-62
2021/12/06 06:15:08;;;;;;;15.67;9.83;;;-0.60;99.90;;;;;;5077838;28;20863;-62
2021/12/06 06:17:41;;;;;;;13.00;8.97;;;-0.60;99.90;;;;;;5077692;28;20465;-62
2021/12/06 06:20:15;;;;;;;10.97;8.23;;;-0.60;99.90;;;;;;5078083;28;20807;-62
2021/12/06 06:22:42;;;;;;;13.07;9.20;;;-0.70;99.90;;;;;;5077783;28;20522;-62
2021/12/06 06:25:09;;;;;;;12.50;8.73;;;-0.80;99.90;;;;;;5078237;28;20467;-62
2021/12/06 06:27:41;;;;;;;10.40;7.53;;;-0.80;99.90;;;;;;5077458;28;20459;-62
2021/12/06 06:30:09;;;;;;;9.83;8.23;;;-0.80;99.90;;;;;;5071766;28;20838;-62
2021/12/06 06:32:46;;;;;;;12.17;8.60;;;-0.90;99.90;;;;;;5078117;28;20798;-62
2021/12/06 06:35:15;;;;;;;11.23;8.73;;;-1.00;99.90;;;;;;5078135;28;20586;-62
2021/12/06 06:37:42;;;;;;;11.63;8.50;;;-1.00;99.90;;;;;;5077422;28;20923;-62
2021/12/06 06:40:10;;;;;;;9.90;8.47;;;-1.10;99.90;;;;;;5077005;28;20472;-62
2021/12/06 06:42:45;;;;;;;10.67;8.90;;;-1.10;99.90;;;;;;5077454;28;20463;-62
2021/12/06 06:45:17;;;;;;;10.83;8.43;;;-1.10;99.90;;;;;;5078101;28;20488;-62
2021/12/06 06:47:45;;;;;;;10.73;8.30;;;-1.20;99.90;;;;;;5082411;28;20464;-62
2021/12/06 06:50:13;;;;;;;10.70;7.60;;;-1.10;99.90;;;;;;5080453;28;20492;-62
2021/12/06 06:52:41;;;;;;;11.20;8.80;;;-1.10;99.90;;;;;;5080351;28;20452;-62
2021/12/06 06:55:10;;;;;;;10.97;8.13;;;-1.00;99.90;;;;;;5079472;28;20679;-62
2021/12/06 06:57:39;;;;;;;15.33;8.53;;;-1.00;99.90;;;;;;5078827;28;20542;-62
2021/12/06 07:00:13;;;;;;;10.90;8.20;;;-1.10;99.90;;;;;;5075334;28;20460;-62
2021/12/06 07:02:41;;;;;;;9.53;7.60;;;-1.20;99.90;;;;;;5078418;28;20903;-62
2021/12/06 07:05:09;;;;;;;11.70;7.80;;;-1.20;99.90;;;;;;5079496;28;20463;-63
2021/12/06 07:07:42;;;;;;;9.20;8.23;;;-1.20;99.90;;;;;;5079715;28;20468;-63
2021/12/06 07:10:11;;;;;;;10.57;8.73;;;-1.20;99.90;;;;;;5079091;28;20497;-62
2021/12/06 07:12:44;;;;;;;9.80;8.20;;;-1.30;99.90;;;;;;5081806;28;20461;-63
2021/12/06 07:15:16;;;;;;;12.80;9.60;;;-1.30;99.90;;;;;;5082226;28;20465;-63
2021/12/06 07:17:45;;;;;;;15.23;9.93;;;-1.30;99.90;;;;;;5081688;28;20556;-62
2021/12/06 07:20:15;;;;;;;16.63;11.00;;;-1.30;99.90;;;;;;5081854;28;20517;-63
2021/12/06 07:22:44;;;;;;;13.63;10.20;;;-1.30;99.90;;;;;;5082026;28;20485;-63
2021/12/06 07:25:12;;;;;;;12.00;9.80;;;-1.40;99.90;;;;;;5081237;28;20521;-62
2021/12/06 07:27:39;;;;;;;13.00;10.13;;;-1.40;99.90;;;;;;5081295;28;20502;-63
2021/12/06 07:30:08;;;;;;;14.43;10.20;;;-1.30;99.90;;;;;;5081760;28;20491;-63
2021/12/06 07:32:37;;;;;;;18.40;11.47;;;-1.40;99.90;;;;;;5081517;28;20463;-63
2021/12/06 07:35:09;;;;;;;16.37;11.43;;;-1.40;99.90;;;;;;5082213;28;20464;-63
2021/12/06 07:37:36;;;;;;;16.80;10.47;;;-1.40;99.90;;;;;;5081786;28;20461;-63
2021/12/06 07:40:07;;;;;;;16.93;11.20;;;-1.50;99.90;;;;;;5080742;28;20463;-63
2021/12/06 07:42:34;;;;;;;12.53;10.33;;;-1.50;99.90;;;;;;5080867;28;20457;-63
2021/12/06 07:45:02;;;;;;;16.40;10.87;;;-1.50;99.90;;;;;;5079908;28;20493;-62
2021/12/06 07:47:32;;;;;;;25.13;16.97;;;-1.40;99.90;;;;;;5080772;28;20480;-62
2021/12/06 07:49:59;;;;;;;67.87;38.03;;;-1.40;99.90;;;;;;5080281;28;20935;-62
2021/12/06 07:52:29;;;;;;;57.00;32.50;;;-1.40;99.90;;;;;;5081084;28;20921;-63
2021/12/06 07:54:59;;;;;;;47.20;28.60;;;-1.30;99.90;;;;;;5080447;28;20473;-63
2021/12/06 07:57:26;;;;;;;36.97;22.40;;;-1.30;99.90;;;;;;5079209;28;20898;-62
2021/12/06 07:59:53;;;;;;;40.47;23.97;;;-1.10;99.90;;;;;;5078793;28;20520;-62
2021/12/06 08:02:23;;;;;;;26.97;16.53;;;-0.90;99.90;;;;;;5077493;28;20467;-62
2021/12/06 08:05:00;;;;;;;14.10;10.70;;;-0.70;99.90;;;;;;5079143;28;20471;-62
2021/12/06 08:07:29;;;;;;;15.50;11.30;;;-0.60;99.90;;;;;;5078993;28;20917;-60
2021/12/06 08:09:56;;;;;;;15.23;11.50;;;-0.30;99.90;;;;;;5079334;28;20550;-61
2021/12/06 08:12:23;;;;;;;18.47;12.60;;;-0.10;99.90;;;;;;5080446;28;20490;-61
2021/12/06 08:14:50;;;;;;;13.83;11.57;;;0.30;99.90;;;;;;5079735;28;20468;-61
2021/12/06 08:17:19;;;;;;;19.27;12.70;;;0.50;99.90;;;;;;5079421;28;20519;-60
2021/12/06 08:19:46;;;;;;;13.97;11.50;;;0.80;99.90;;;;;;5078636;28;20586;-60
2021/12/06 08:22:13;;;;;;;20.17;12.90;;;1.00;99.90;;;;;;5078177;28;20894;-60
2021/12/06 08:24:42;;;;;;;29.73;19.73;;;1.20;99.90;;;;;;5078529;28;20490;-59
2021/12/06 08:27:13;;;;;;;19.73;14.13;;;1.30;99.90;;;;;;5077099;28;20493;-59
2021/12/06 08:29:43;;;;;;;20.10;13.60;;;1.50;99.90;;;;;;5077935;28;20970;-59
2021/12/06 08:32:11;;;;;;;18.37;13.43;;;1.60;99.90;;;;;;5077862;28;20936;-59
2021/12/06 08:34:41;;;;;;;20.13;13.10;;;1.70;99.90;;;;;;5077112;28;20469;-59
2021/12/06 08:37:12;;;;;;;17.03;14.00;;;1.70;99.90;;;;;;5078045;28;20504;-60
2021/12/06 08:39:43;;;;;;;16.30;12.40;;;1.80;99.90;;;;;;5075887;28;20522;-60
2021/12/06 08:42:11;;;;;;;15.53;12.47;;;1.90;99.90;;;;;;5075800;28;20828;-60
2021/12/06 08:44:38;;;;;;;15.60;13.33;;;2.20;99.90;;;;;;5076790;28;20569;-60
2021/12/06 08:47:05;;;;;;;16.07;11.70;;;2.00;99.90;;;;;;5076482;28;20465;-59
2021/12/06 08:49:33;;;;;;;13.30;11.03;;;2.00;99.90;;;;;;5076205;28;20461;-56
2021/12/06 08:52:03;;;;;;;13.00;10.47;;;2.00;99.90;;;;;;5074988;28;20457;-57
2021/12/06 08:54:31;;;;;;;16.63;10.80;;;2.10;99.90;;;;;;5074881;28;20919;-58
2021/12/06 08:57:01;;;;;;;13.30;11.13;;;2.30;99.90;;;;;;5076071;28;20435;-59
2021/12/06 08:59:29;;;;;;;10.33;8.00;;;2.80;99.90;;;;;;5077841;28;20918;-60
2021/12/06 09:01:58;;;;;;;11.10;9.10;;;3.00;99.90;;;;;;5078170;28;20836;-59
2021/12/06 09:04:31;;;;;;;12.00;9.73;;;3.10;99.90;;;;;;5069459;28;20470;-60
2021/12/06 09:06:59;;;;;;;13.63;11.40;;;3.00;99.90;;;;;;5073848;28;20462;-60
2021/12/06 09:09:27;;;;;;;15.80;12.63;;;3.00;99.90;;;;;;5077465;28;20500;-60
2021/12/06 09:11:56;;;;;;;12.10;9.93;;;3.30;99.90;;;;;;5079561;28;20950;-61
2021/12/06 09:14:27;;;;;;;11.90;10.10;;;3.40;99.90;;;;;;5077981;28;20492;-61
2021/12/06 09:16:54;;;;;;;11.20;10.10;;;3.50;99.90;;;;;;5078646;28;20457;-61
2021/12/06 09:19:22;;;;;;;9.70;8.07;;;3.70;99.90;;;;;;5078129;28;20461;-61
2021/12/06 09:21:49;;;;;;;6.83;6.13;;;4.00;99.90;;;;;;5078365;28;20453;-61
2021/12/06 09:24:19;;;;;;;7.37;6.30;;;4.10;99.90;;;;;;5077187;28;20436;-61
2021/12/06 09:26:52;;;;;;;7.10;6.40;;;4.30;99.90;;;;;;5077137;28;20469;-61
2021/12/06 09:29:24;;;;;;;8.03;6.00;;;4.50;99.90;;;;;;5072926;28;20464;-61
2021/12/06 09:31:53;;;;;;;7.17;6.30;;;4.80;99.90;;;;;;5075950;28;20584;-61
2021/12/06 09:34:20;;;;;;;7.83;6.73;;;5.00;99.90;;;;;;5076238;28;20465;-61
2021/12/06 09:36:47;;;;;;;7.30;6.10;;;5.00;99.90;;;;;;5073383;28;20465;-61
2021/12/06 09:39:18;;;;;;;7.13;6.33;;;5.20;99.90;;;;;;5076326;28;20554;-61
2021/12/06 09:41:45;;;;;;;8.40;6.00;;;5.40;99.90;;;;;;5076093;28;20514;-61
2021/12/06 09:44:13;;;;;;;11.30;7.33;;;5.60;99.90;;;;;;5076232;28;20465;-61
2021/12/06 09:46:42;;;;;;;13.30;5.90;;;5.60;99.90;;;;;;5076506;28;20465;-61
2021/12/06 09:49:14;;;;;;;7.40;6.70;;;5.80;99.90;;;;;;5076516;28;20473;-61
2021/12/06 09:51:45;;;;;;;8.40;7.00;;;6.10;99.90;;;;;;5077094;28;20489;-61
2021/12/06 09:54:13;;;;;;;8.40;7.30;;;6.30;99.90;;;;;;5077133;28;20457;-61
2021/12/06 09:56:45;;;;;;;7.63;6.93;;;6.50;99.90;;;;;;5077455;28;20458;-64
2021/12/06 09:59:15;;;;;;;7.67;6.87;;;6.50;1.00;;;;;;5075989;28;20452;-64
2021/12/06 10:01:46;;;;;;;8.20;7.40;;;6.60;99.90;;;;;;5076528;28;20453;-64
2021/12/06 10:04:16;;;;;;;12.40;8.43;;;6.80;99.90;;;;;;5075619;28;20514;-64
2021/12/06 10:06:45;;;;;;;10.90;8.53;;;6.80;99.90;;;;;;5074361;28;20523;-64
2021/12/06 10:09:16;;;;;;;11.60;8.80;;;7.00;99.90;;;;;;5074569;28;20484;-64
2021/12/06 10:11:44;;;;;;;8.70;7.77;;;7.20;99.90;;;;;;5075322;28;20555;-64
2021/12/06 10:14:12;;;;;;;9.17;8.27;;;7.30;99.90;;;;;;5073890;28;20510;-64
2021/12/06 10:16:40;;;;;;;12.07;8.73;;;7.40;99.90;;;;;;5074637;28;20497;-64
2021/12/06 10:19:07;;;;;;;11.33;8.13;;;7.50;97.90;;;;;;5074510;28;20465;-64
2021/12/06 10:21:38;;;;;;;9.00;7.60;;;7.40;16.90;;;;;;5079349;28;20457;-64
2021/12/06 10:24:12;;;;;;;9.30;8.23;;;7.30;29.00;;;;;;5079511;28;20914;-64
2021/12/06 10:26:42;;;;;;;10.47;8.20;;;7.60;70.20;;;;;;5079589;28;20511;-64
2021/12/06 10:29:20;;;;;;;8.10;7.40;;;7.70;41.10;;;;;;5079639;28;20890;-64
2021/12/06 10:31:51;;;;;;;10.70;8.97;;;7.80;7.60;;;;;;5079848;28;20489;-64
2021/12/06 10:34:24;;;;;;;9.67;8.67;;;7.90;1.00;;;;;;5079779;28;20453;-64
2021/12/06 10:36:57;;;;;;;9.27;8.37;;;7.90;1.00;;;;;;5077590;28;20464;-64
2021/12/06 10:39:24;;;;;;;9.30;8.20;;;8.00;17.70;;;;;;5079556;28;20773;-65
2021/12/06 10:41:54;;;;;;;9.67;8.67;;;8.10;1.00;;;;;;5080006;28;20457;-65
2021/12/06 10:44:24;;;;;;;9.87;8.43;;;8.20;1.00;;;;;;5078632;28;20532;-64
2021/12/06 10:46:53;;;;;;;9.70;8.70;;;8.40;1.00;;;;;;5079297;28;20803;-64
2021/12/06 10:49:25;;;;;;;10.03;8.80;;;8.40;1.00;;;;;;5084883;28;20472;-64
2021/12/06 10:51:54;;;;;;;9.60;8.53;;;8.70;1.00;;;;;;5079749;28;20493;-64
2021/12/06 10:54:33;;;;;;;9.37;8.30;;;8.70;1.00;;;;;;5079537;28;20895;-64
2021/12/06 10:57:03;;;;;;;11.23;9.00;;;9.00;1.00;;;;;;5078584;28;20497;-64
2021/12/06 10:59:39;;;;;;;9.67;8.57;;;9.10;1.00;;;;;;5077631;28;20915;-64
2021/12/06 11:02:09;;;;;;;8.33;7.47;;;9.30;1.00;;;;;;5078348;28;20887;-65
2021/12/06 11:04:38;;;;;;;9.17;8.27;;;9.40;1.00;;;;;;5079772;28;20902;-65
2021/12/06 11:07:14;;;;;;;9.60;8.63;;;9.60;1.00;;;;;;5078811;28;20469;-65
2021/12/06 11:09:43;;;;;;;9.77;8.77;;;9.60;1.00;;;;;;5079418;28;20460;-65
2021/12/06 11:12:17;;;;;;;10.13;7.83;;;9.40;1.00;;;;;;5078693;28;20505;-65
2021/12/06 11:14:46;;;;;;;11.60;8.93;;;9.50;1.00;;;;;;5079248;28;20896;-65
2021/12/06 11:17:18;;;;;;;10.00;8.87;;;9.40;1.00;;;;;;5079686;28;20775;-65
2021/12/06 11:19:51;;;;;;;10.80;8.57;;;9.40;1.00;;;;;;5078635;28;20847;-64
2021/12/06 11:22:22;;;;;;;8.90;8.00;;;9.60;1.00;;;;;;5062318;28;20939;-64
2021/12/06 11:24:55;;;;;;;9.17;8.33;;;9.60;1.00;;;;;;5078674;28;20510;-64
2021/12/06 11:27:24;;;;;;;9.27;8.40;;;9.60;1.00;;;;;;5079303;28;20930;-64
2021/12/06 11:29:55;;;;;;;9.63;8.37;;;9.70;1.00;;;;;;5078678;28;20461;-64
2021/12/06 11:32:24;;;;;;;9.83;8.40;;;9.50;1.00;;;;;;5078215;28;20493;-64
2021/12/06 11:34:54;;;;;;;11.53;8.23;;;9.40;1.00;;;;;;5079129;28;20461;-64
2021/12/06 11:37:31;;;;;;;10.00;9.20;;;9.30;1.00;;;;;;5079171;28;20469;-64
2021/12/06 11:40:04;;;;;;;9.67;8.67;;;9.20;1.00;;;;;;5078944;28;20548;-64
2021/12/06 11:42:31;;;;;;;10.10;8.97;;;9.00;1.00;;;;;;5079149;28;20748;-64
2021/12/06 11:45:00;;;;;;;9.60;8.70;;;8.80;1.00;;;;;;5078022;28;20555;-63
2021/12/06 11:47:27;;;;;;;8.37;7.40;;;8.90;1.00;;;;;;5078643;28;20542;-63
2021/12/06 11:49:59;;;;;;;13.33;9.50;;;9.30;1.00;;;;;;5077850;28;20462;-63
2021/12/06 11:52:32;;;;;;;9.40;8.23;;;9.50;1.00;;;;;;5078150;28;20496;-63
2021/12/06 11:55:07;;;;;;;10.37;7.80;;;9.80;1.00;;;;;;5078700;28;20519;-63
2021/12/06 11:57:39;;;;;;;8.50;7.70;;;9.80;1.00;;;;;;5078830;28;20743;-63
2021/12/06 12:00:10;;;;;;;8.03;7.33;;;9.90;1.00;;;;;;5078561;28;20800;-63
2021/12/06 12:02:46;;;;;;;9.07;8.13;;;9.80;1.00;;;;;;5078469;28;20455;-62
2021/12/06 12:05:36;;;;;;;9.70;8.30;;;9.30;1.00;;;;;;5077755;28;20469;-63
2021/12/06 12:08:10;;;;;;;13.77;9.70;;;9.10;1.00;;;;;;5064846;28;20462;-63
2021/12/06 12:10:44;;;;;;;10.70;8.60;;;9.30;1.00;;;;;;5071699;28;20457;-63
2021/12/06 12:13:23;;;;;;;10.87;9.77;;;9.10;1.00;;;;;;5073461;28;20774;-62
2021/12/06 12:15:50;;;;;;;10.37;8.80;;;8.80;1.00;;;;;;5077048;28;20910;-63
2021/12/06 12:18:17;;;;;;;10.57;8.80;;;8.80;1.00;;;;;;5076709;28;20515;-63
2021/12/06 12:20:47;;;;;;;9.73;8.70;;;8.60;1.00;;;;;;5076530;28;20461;-62
2021/12/06 12:23:19;;;;;;;12.43;9.83;;;8.50;1.00;;;;;;5076682;28;20896;-62
2021/12/06 12:25:53;;;;;;;12.47;9.60;;;8.40;1.00;;;;;;5077865;28;20516;-62
2021/12/06 12:28:23;;;;;;;10.33;9.27;;;8.70;1.00;;;;;;5078151;28;20551;-62
2021/12/06 12:30:57;;;;;;;13.13;9.30;;;8.70;1.00;;;;;;5077355;28;20481;-62
2021/12/06 12:33:24;;;;;;;9.23;8.30;;;8.30;1.00;;;;;;5076373;28;20465;-62
2021/12/06 12:35:57;;;;;;;10.77;9.33;;;8.20;1.00;;;;;;5077072;28;20465;-62
2021/12/06 12:38:28;;;;;;;10.00;7.87;;;8.30;1.00;;;;;;5077154;28;20862;-62
2021/12/06 12:40:57;;;;;;;8.87;7.97;;;8.10;1.00;;;;;;5077592;28;20511;-62
2021/12/06 12:43:32;;;;;;;9.73;7.80;;;8.10;1.00;;;;;;5076292;28;20485;-62
2021/12/06 12:46:07;;;;;;;9.40;6.93;;;8.00;1.00;;;;;;5077437;28;20488;-62
2021/12/06 12:48:48;;;;;;;10.20;7.53;;;7.80;1.00;;;;;;5080210;28;20820;-62
2021/12/06 12:51:19;;;;;;;10.20;8.30;;;7.60;1.00;;;;;;5076489;28;20567;-62
2021/12/06 12:53:54;;;;;;;10.43;7.90;;;7.40;1.00;;;;;;5074801;28;20827;-62
2021/12/06 12:56:26;;;;;;;7.27;6.00;;;7.20;1.00;;;;;;5074927;28;20464;-62
2021/12/06 12:58:53;;;;;;;7.97;7.03;;;6.80;1.00;;;;;;5076998;28;20760;-62
2021/12/06 13:01:23;;;;;;;7.63;6.60;;;6.60;1.00;;;;;;5076660;28;20880;-62
2021/12/06 13:03:56;;;;;;;8.13;7.33;;;6.50;1.00;;;;;;5076787;28;20470;-62
2021/12/06 13:06:27;;;;;;;7.87;6.63;;;6.60;1.00;;;;;;5074675;28;20458;-62
2021/12/06 13:08:58;;;;;;;11.47;7.60;;;6.50;1.00;;;;;;5075396;28;20515;-62
2021/12/06 13:11:29;;;;;;;8.53;6.63;;;6.50;1.00;;;;;;5075355;28;20488;-62